createdAt,value
2022-10-30T00:02:01.780Z,98292.16
2022-10-30T00:04:29.370Z,98295.69
2022-10-30T00:06:56.806Z,98291.84
2022-10-30T00:09:24.296Z,98289.16
2022-10-30T00:11:53.124Z,98276.78
2022-10-30T00:14:20.598Z,98280.06
2022-10-30T00:16:48.078Z,98287.75
2022-10-30T00:19:15.535Z,98281.34
2022-10-30T00:21:43.059Z,98283.25
2022-10-30T00:24:12.010Z,98276.16
2022-10-30T00:26:39.469Z,98282.59
2022-10-30T00:29:08.270Z,98282.59
2022-10-30T00:31:35.740Z,98280.41
2022-10-30T00:34:03.181Z,98281.25
2022-10-30T00:36:30.650Z,98281.78
2022-10-30T00:38:58.084Z,98281.34
2022-10-30T00:41:26.074Z,98272.03
2022-10-30T00:43:54.013Z,98277.19
2022-10-30T00:46:28.765Z,98270.16
2022-10-30T00:48:59.170Z,98274.72
2022-10-30T00:51:28.725Z,98273.25
2022-10-30T00:54:00.224Z,98268.91
2022-10-30T00:56:28.289Z,98278.03
2022-10-30T00:58:59.893Z,98273.06
2022-10-30T01:01:33.627Z,98273.91
2022-10-30T01:04:03.659Z,98271.19
2022-10-30T01:06:33.414Z,98274.94
2022-10-30T01:09:01.547Z,98277.63
2022-10-30T01:11:29.120Z,98274.31
2022-10-30T01:14:01.029Z,98265.16
2022-10-30T01:16:50.676Z,98267.25
2022-10-30T01:19:26.880Z,98261.44
2022-10-30T01:22:06.969Z,98265.16
2022-10-30T01:24:46.357Z,98255.63
2022-10-30T01:27:30.562Z,98255.81
2022-10-30T01:30:11.005Z,98256.66
2022-10-30T01:32:52.004Z,98249.41
2022-10-30T01:35:24.843Z,98255.03
2022-10-30T01:37:59.015Z,98248.78
2022-10-30T01:40:26.677Z,98246.94
2022-10-30T01:42:55.364Z,98250.00
2022-10-30T01:45:32.214Z,98252.94
2022-10-30T01:48:27.249Z,98238.63
2022-10-30T01:51:00.404Z,98248.16
2022-10-30T01:53:43.413Z,98249.81
2022-10-30T01:56:20.342Z,98248.56
2022-10-30T01:58:56.994Z,98247.75
2022-10-30T02:01:25.982Z,98252.53
2022-10-30T02:03:55.103Z,98248.16
2022-10-30T02:06:22.631Z,98247.97
2022-10-30T02:08:50.089Z,98238.81
2022-10-30T02:11:18.402Z,98235.50
2022-10-30T02:13:45.882Z,98231.34
2022-10-30T02:16:13.500Z,98232.41
2022-10-30T02:18:41.641Z,98235.47
2022-10-30T02:21:10.565Z,98238.19
2022-10-30T02:23:38.281Z,98241.09
2022-10-30T02:26:05.866Z,98243.78
2022-10-30T02:28:33.358Z,98240.25
2022-10-30T02:31:00.862Z,98250.22
2022-10-30T02:33:28.405Z,98244.00
2022-10-30T02:35:55.884Z,98240.69
2022-10-30T02:38:25.027Z,98241.28
2022-10-30T02:40:52.481Z,98243.38
2022-10-30T02:43:19.969Z,98242.53
2022-10-30T02:45:51.821Z,98236.94
2022-10-30T02:48:19.357Z,98239.16
2022-10-30T02:50:46.839Z,98230.69
2022-10-30T02:53:14.313Z,98235.03
2022-10-30T02:55:43.184Z,98231.09
2022-10-30T02:58:11.038Z,98229.22
2022-10-30T03:00:38.533Z,98234.81
2022-10-30T03:03:06.053Z,98226.94
2022-10-30T03:05:33.503Z,98225.47
2022-10-30T03:08:01.425Z,98233.97
2022-10-30T03:10:29.150Z,98227.34
2022-10-30T03:12:59.480Z,98226.50
2022-10-30T03:15:26.998Z,98218.84
2022-10-30T03:17:54.684Z,98223.38
2022-10-30T03:20:22.552Z,98223.63
2022-10-30T03:22:50.022Z,98210.13
2022-10-30T03:25:23.381Z,98223.19
2022-10-30T03:27:50.929Z,98215.72
2022-10-30T03:30:20.253Z,98225.66
2022-10-30T03:32:47.722Z,98222.38
2022-10-30T03:35:15.264Z,98225.06
2022-10-30T03:37:42.702Z,98225.47
2022-10-30T03:40:11.182Z,98223.38
2022-10-30T03:42:40.396Z,98217.59
2022-10-30T03:45:09.019Z,98220.28
2022-10-30T03:47:40.700Z,98209.06
2022-10-30T03:50:08.692Z,98211.78
2022-10-30T03:52:36.816Z,98209.91
2022-10-30T03:55:04.593Z,98208.84
2022-10-30T03:57:32.094Z,98212.59
2022-10-30T03:59:59.545Z,98207.00
2022-10-30T04:02:27.050Z,98205.53
2022-10-30T04:04:55.844Z,98209.69
2022-10-30T04:07:23.333Z,98208.44
2022-10-30T04:09:50.793Z,98211.50
2022-10-30T04:12:18.269Z,98207.78
2022-10-30T04:14:45.737Z,98208.41
2022-10-30T04:17:13.643Z,98211.50
2022-10-30T04:19:41.177Z,98221.22
2022-10-30T04:22:09.969Z,98223.34
2022-10-30T04:24:39.510Z,98222.69
2022-10-30T04:27:07.031Z,98221.91
2022-10-30T04:29:34.472Z,98226.66
2022-10-30T04:32:02.020Z,98228.72
2022-10-30T04:34:29.511Z,98224.53
2022-10-30T04:36:56.963Z,98224.13
2022-10-30T04:39:25.768Z,98222.47
2022-10-30T04:41:53.336Z,98230.13
2022-10-30T04:44:20.949Z,98231.59
2022-10-30T04:46:48.402Z,98234.69
2022-10-30T04:49:15.866Z,98242.16
2022-10-30T04:51:46.305Z,98234.06
2022-10-30T04:54:13.858Z,98238.22
2022-10-30T04:56:42.635Z,98239.44
2022-10-30T04:59:10.134Z,98238.44
2022-10-30T05:01:37.676Z,98238.44
2022-10-30T05:04:05.518Z,98230.94
2022-10-30T05:06:34.073Z,98228.66
2022-10-30T05:09:01.561Z,98230.91
2022-10-30T05:11:29.041Z,98231.13
2022-10-30T05:13:58.193Z,98231.31
2022-10-30T05:16:25.658Z,98236.28
2022-10-30T05:18:53.177Z,98233.38
2022-10-30T05:21:20.638Z,98224.06
2022-10-30T05:23:48.122Z,98224.06
2022-10-30T05:26:15.579Z,98223.63
2022-10-30T05:28:43.077Z,98223.19
2022-10-30T05:31:11.909Z,98227.75
2022-10-30T05:33:39.399Z,98222.56
2022-10-30T05:36:07.454Z,98228.59
2022-10-30T05:38:34.881Z,98235.41
2022-10-30T05:41:02.398Z,98233.13
2022-10-30T05:43:29.833Z,98230.00
2022-10-30T05:45:57.326Z,98229.19
2022-10-30T05:48:26.148Z,98220.28
2022-10-30T05:50:53.638Z,98217.34
2022-10-30T05:53:21.084Z,98218.16
2022-10-30T05:55:48.603Z,98223.13
2022-10-30T05:58:16.100Z,98213.81
2022-10-30T06:00:44.315Z,98220.84
2022-10-30T06:03:13.113Z,98226.84
2022-10-30T06:05:42.145Z,98231.19
2022-10-30T06:08:09.659Z,98234.50
2022-10-30T06:10:37.731Z,98239.88
2022-10-30T06:13:07.954Z,98239.63
2022-10-30T06:15:35.456Z,98241.72
2022-10-30T06:18:03.123Z,98244.41
2022-10-30T06:20:31.414Z,98242.53
2022-10-30T06:23:01.978Z,98244.59
2022-10-30T06:25:31.650Z,98251.88
2022-10-30T06:28:00.596Z,98239.63
2022-10-30T06:30:28.566Z,98245.84
2022-10-30T06:33:00.603Z,98242.53
2022-10-30T06:35:29.109Z,98242.31
2022-10-30T06:38:00.012Z,98251.41
2022-10-30T06:40:29.840Z,98250.22
2022-10-30T06:42:58.349Z,98247.13
2022-10-30T06:45:26.441Z,98250.41
2022-10-30T06:47:53.937Z,98247.69
2022-10-30T06:50:24.060Z,98252.66
2022-10-30T06:52:51.549Z,98250.78
2022-10-30T06:55:19.831Z,98254.72
2022-10-30T06:57:54.651Z,98257.63
2022-10-30T07:00:22.294Z,98260.97
2022-10-30T07:02:57.338Z,98259.94
2022-10-30T07:05:25.182Z,98260.97
2022-10-30T07:07:52.909Z,98262.25
2022-10-30T07:10:20.369Z,98265.34
2022-10-30T07:12:58.766Z,98268.84
2022-10-30T07:15:27.458Z,98275.94
2022-10-30T07:17:58.754Z,98269.66
2022-10-30T07:20:27.680Z,98276.72
2022-10-30T07:22:55.370Z,98270.06
2022-10-30T07:25:23.112Z,98270.09
2022-10-30T07:27:52.476Z,98268.66
2022-10-30T07:30:22.974Z,98270.06
2022-10-30T07:32:58.384Z,98276.31
2022-10-30T07:35:26.214Z,98280.69
2022-10-30T07:37:54.009Z,98274.47
2022-10-30T07:40:21.804Z,98276.97
2022-10-30T07:42:49.311Z,98274.72
2022-10-30T07:45:16.840Z,98277.53
2022-10-30T07:47:45.654Z,98274.00
2022-10-30T07:50:13.154Z,98280.66
2022-10-30T07:52:40.648Z,98280.72
2022-10-30T07:55:09.313Z,98281.94
2022-10-30T07:57:37.659Z,98287.16
2022-10-30T08:06:24.750Z,98283.66
2022-10-30T08:08:54.591Z,98289.44
2022-10-30T08:11:22.157Z,98286.75
2022-10-30T08:13:49.734Z,98280.34
2022-10-30T08:16:18.147Z,98278.66
2022-10-30T08:18:45.863Z,98280.78
2022-10-30T08:21:13.361Z,98287.00
2022-10-30T08:23:42.221Z,98289.50
2022-10-30T08:26:09.862Z,98285.16
2022-10-30T08:28:37.327Z,98281.47
2022-10-30T08:31:05.841Z,98286.69
2022-10-30T08:33:33.188Z,98276.69
2022-10-30T08:36:01.982Z,98285.66
2022-10-30T08:38:29.917Z,98276.97
2022-10-30T08:40:59.650Z,98279.25
2022-10-30T08:43:27.125Z,98283.47
2022-10-30T08:45:54.650Z,98279.56
2022-10-30T08:48:22.110Z,98282.69
2022-10-30T08:50:49.589Z,98277.69
2022-10-30T08:53:17.170Z,98282.50
2022-10-30T08:55:44.681Z,98285.63
2022-10-30T08:58:13.478Z,98285.69
2022-10-30T09:00:40.949Z,98287.56
2022-10-30T09:03:08.438Z,98284.06
2022-10-30T09:05:37.761Z,98283.22
2022-10-30T09:08:05.520Z,98285.09
2022-10-30T09:10:33.057Z,98284.06
2022-10-30T09:13:02.285Z,98279.47
2022-10-30T09:15:31.681Z,98279.69
2022-10-30T09:18:01.367Z,98276.81
2022-10-30T09:20:29.897Z,98279.50
2022-10-30T09:22:58.031Z,98273.28
2022-10-30T09:25:25.953Z,98277.00
2022-10-30T09:27:53.431Z,98284.47
2022-10-30T09:30:21.237Z,98280.34
2022-10-30T09:32:57.302Z,98276.34
2022-10-30T09:35:25.614Z,98269.50
2022-10-30T09:37:53.149Z,98276.38
2022-10-30T09:40:25.261Z,98277.00
2022-10-30T09:42:53.234Z,98271.97
2022-10-30T09:45:56.010Z,98265.50
2022-10-30T09:48:58.429Z,98271.38
2022-10-30T09:51:49.121Z,98279.91
2022-10-30T09:54:29.994Z,98270.09
2022-10-30T09:57:03.525Z,98272.94
2022-10-30T09:59:44.319Z,98269.28
2022-10-30T10:02:25.753Z,98269.28
2022-10-30T10:04:59.222Z,98270.81
2022-10-30T10:07:31.024Z,98272.19
2022-10-30T10:10:02.206Z,98276.03
2022-10-30T10:12:35.185Z,98271.44
2022-10-30T10:15:10.462Z,98276.38
2022-10-30T10:17:42.176Z,98276.66
2022-10-30T10:20:17.950Z,98264.56
2022-10-30T10:22:49.499Z,98263.06
2022-10-30T10:25:19.021Z,98257.69
2022-10-30T10:27:57.089Z,98261.28
2022-10-30T10:30:25.316Z,98253.03
2022-10-30T10:33:16.495Z,98249.03
2022-10-30T10:35:54.847Z,98250.31
2022-10-30T10:38:37.230Z,98249.56
2022-10-30T10:41:18.617Z,98241.16
2022-10-30T10:44:01.675Z,98238.81
2022-10-30T10:46:42.145Z,98243.78
2022-10-30T10:49:23.757Z,98253.03
2022-10-30T10:51:56.193Z,98233.31
2022-10-30T10:54:29.164Z,98230.53
2022-10-30T10:56:59.621Z,98229.41
2022-10-30T10:59:35.732Z,98230.13
2022-10-30T11:02:25.923Z,98237.28
2022-10-30T11:05:02.773Z,98240.59
2022-10-30T11:07:34.318Z,98233.16
2022-10-30T11:10:01.786Z,98229.69
2022-10-30T11:12:33.925Z,98223.91
2022-10-30T11:15:19.092Z,98223.44
2022-10-30T11:17:55.216Z,98223.03
2022-10-30T11:20:30.622Z,98221.63
2022-10-30T11:22:59.803Z,98215.97
2022-10-30T11:25:35.309Z,98218.34
2022-10-30T11:28:05.541Z,98221.47
2022-10-30T11:30:33.697Z,98219.97
2022-10-30T11:33:22.776Z,98217.59
2022-10-30T11:35:50.391Z,98222.22
2022-10-30T11:38:21.448Z,98221.13
2022-10-30T11:40:52.784Z,98213.25
2022-10-30T11:43:23.524Z,98220.22
2022-10-30T11:45:52.012Z,98215.75
2022-10-30T11:48:25.990Z,98216.97
2022-10-30T11:50:57.968Z,98207.16
2022-10-30T11:53:32.651Z,98199.13
2022-10-30T11:56:00.220Z,98201.34
2022-10-30T11:58:33.819Z,98213.25
2022-10-30T12:01:04.899Z,98208.06
2022-10-30T12:03:37.552Z,98201.81
2022-10-30T12:06:10.986Z,98205.47
2022-10-30T12:08:39.821Z,98197.44
2022-10-30T12:11:07.744Z,98198.53
2022-10-30T12:13:40.378Z,98205.31
2022-10-30T12:16:14.508Z,98199.09
2022-10-30T12:18:42.709Z,98193.34
2022-10-30T12:21:11.975Z,98194.41
2022-10-30T12:23:41.190Z,98195.81
2022-10-30T12:26:11.972Z,98195.59
2022-10-30T12:28:40.509Z,98192.09
2022-10-30T12:31:13.669Z,98191.63
2022-10-30T12:33:46.347Z,98190.81
2022-10-30T12:36:18.485Z,98195.81
2022-10-30T12:38:52.896Z,98193.41
2022-10-30T12:41:26.111Z,98187.72
2022-10-30T12:44:00.464Z,98192.44
2022-10-30T12:46:35.019Z,98189.06
2022-10-30T12:49:11.812Z,98193.81
2022-10-30T12:51:47.991Z,98190.28
2022-10-30T12:54:26.600Z,98183.13
2022-10-30T12:57:09.359Z,98179.97
2022-10-30T12:59:44.800Z,98174.50
2022-10-30T13:02:22.320Z,98166.63
2022-10-30T13:04:57.730Z,98174.19
2022-10-30T13:07:30.507Z,98172.38
2022-10-30T13:10:12.543Z,98173.09
2022-10-30T13:12:43.956Z,98173.72
2022-10-30T13:15:20.117Z,98165.41
2022-10-30T13:17:47.657Z,98173.66
2022-10-30T13:20:17.040Z,98169.13
2022-10-30T13:22:50.040Z,98165.28
2022-10-30T13:25:25.463Z,98162.19
2022-10-30T13:28:00.027Z,98164.44
2022-10-30T13:30:33.244Z,98155.84
2022-10-30T13:33:12.816Z,98155.44
2022-10-30T13:35:48.873Z,98159.34
2022-10-30T13:38:33.992Z,98161.34
2022-10-30T13:41:12.347Z,98159.22
2022-10-30T13:43:50.759Z,98157.84
2022-10-30T13:46:47.243Z,98157.13
2022-10-30T13:49:32.948Z,98158.41
2022-10-30T13:52:05.683Z,98156.75
2022-10-30T13:54:36.755Z,98162.13
2022-10-30T13:57:12.312Z,98166.72
2022-10-30T13:59:53.199Z,98170.16
2022-10-30T14:02:34.199Z,98162.94
2022-10-30T14:05:14.236Z,98182.06
2022-10-30T14:07:49.561Z,98170.56
2022-10-30T14:10:23.793Z,98173.53
2022-10-30T14:13:06.129Z,98170.81
2022-10-30T14:15:41.519Z,98171.63
2022-10-30T14:18:15.648Z,98175.28
2022-10-30T14:20:46.211Z,98169.84
2022-10-30T14:23:15.929Z,98172.72
2022-10-30T14:25:43.837Z,98165.97
2022-10-30T14:28:21.598Z,98170.47
2022-10-30T14:30:51.421Z,98169.63
2022-10-30T14:33:45.717Z,98173.59
2022-10-30T14:36:14.524Z,98172.25
2022-10-30T14:38:42.316Z,98164.31
2022-10-30T14:41:22.399Z,98168.44
2022-10-30T14:44:00.448Z,98170.31
2022-10-30T14:46:34.712Z,98176.72
2022-10-30T14:49:13.285Z,98171.78
2022-10-30T14:51:46.268Z,98172.47
2022-10-30T14:54:23.031Z,98175.72
2022-10-30T14:56:52.609Z,98173.06
2022-10-30T14:59:32.511Z,98173.69
2022-10-30T15:02:11.886Z,98171.53
2022-10-30T15:04:54.083Z,98174.81
2022-10-30T15:07:28.591Z,98175.03
2022-10-30T15:10:12.127Z,98175.34
2022-10-30T15:13:01.276Z,98177.38
2022-10-30T15:15:31.573Z,98179.03
2022-10-30T15:18:02.729Z,98172.41
2022-10-30T15:20:34.052Z,98176.75
2022-10-30T15:23:04.776Z,98177.69
2022-10-30T15:25:36.886Z,98172.25
2022-10-30T15:28:05.663Z,98175.66
2022-10-30T15:30:34.559Z,98176.69
2022-10-30T15:33:02.640Z,98175.28
2022-10-30T15:35:30.503Z,98175.75
2022-10-30T15:38:03.335Z,98172.66
2022-10-30T15:40:32.147Z,98171.47
2022-10-30T15:43:02.477Z,98178.00
2022-10-30T15:45:35.312Z,98177.75
2022-10-30T15:48:08.934Z,98183.63
2022-10-30T15:50:40.322Z,98184.09
2022-10-30T15:53:15.875Z,98180.41
2022-10-30T15:55:43.824Z,98177.09
2022-10-30T15:58:18.345Z,98178.81
2022-10-30T16:00:57.540Z,98175.50
2022-10-30T16:03:25.379Z,98181.34
2022-10-30T16:06:03.782Z,98177.81
2022-10-30T16:08:31.278Z,98182.03
2022-10-30T16:10:58.897Z,98184.13
2022-10-30T16:13:30.859Z,98179.19
2022-10-30T16:16:01.262Z,98184.22
2022-10-30T16:18:31.873Z,98191.13
2022-10-30T16:21:03.810Z,98186.97
2022-10-30T16:23:37.926Z,98190.53
2022-10-30T16:26:05.626Z,98183.25
2022-10-30T16:28:34.921Z,98185.56
2022-10-30T16:31:06.605Z,98195.78
2022-10-30T16:33:36.262Z,98186.81
2022-10-30T16:36:05.769Z,98182.91
2022-10-30T16:38:37.622Z,98188.97
2022-10-30T16:41:06.547Z,98185.06
2022-10-30T16:43:35.463Z,98192.13
2022-10-30T16:46:35.411Z,98199.03
2022-10-30T16:49:06.562Z,98193.03
2022-10-30T16:51:34.224Z,98199.13
2022-10-30T16:54:01.718Z,98194.13
2022-10-30T16:56:31.658Z,98194.34
2022-10-30T16:59:08.675Z,98200.78
2022-10-30T17:01:37.781Z,98200.72
2022-10-30T17:04:06.149Z,98205.75
2022-10-30T17:06:40.243Z,98202.09
2022-10-30T17:09:09.951Z,98200.84
2022-10-30T17:11:41.768Z,98209.00
2022-10-30T17:14:27.247Z,98207.34
2022-10-30T17:16:57.700Z,98212.53
2022-10-30T17:19:48.220Z,98217.88
2022-10-30T17:22:20.207Z,98214.53
2022-10-30T17:24:48.967Z,98213.25
2022-10-30T17:27:56.008Z,98223.22
2022-10-30T17:30:34.326Z,98227.19
2022-10-30T17:33:04.327Z,98223.28
2022-10-30T17:35:31.873Z,98223.72
2022-10-30T17:38:01.794Z,98228.88
2022-10-30T17:40:30.644Z,98228.72
2022-10-30T17:42:58.126Z,98228.97
2022-10-30T17:45:25.591Z,98223.53
2022-10-30T17:47:53.459Z,98228.53
2022-10-30T17:50:22.323Z,98234.78
2022-10-30T17:52:50.039Z,98231.88
2022-10-30T17:55:26.576Z,98235.03
2022-10-30T17:57:54.214Z,98232.31
2022-10-30T18:00:21.917Z,98229.22
2022-10-30T18:02:49.399Z,98235.66
2022-10-30T18:05:19.715Z,98232.78
2022-10-30T18:10:21.173Z,98236.50
2022-10-30T18:12:48.688Z,98236.13
2022-10-30T18:15:27.140Z,98238.03
2022-10-30T18:17:54.826Z,98235.31
2022-10-30T18:20:22.479Z,98235.31
2022-10-30T18:22:51.557Z,98233.25
2022-10-30T18:25:22.442Z,98231.00
2022-10-30T18:27:49.941Z,98235.72
2022-10-30T18:30:18.620Z,98237.41
2022-10-30T18:32:47.003Z,98239.91
2022-10-30T18:35:15.705Z,98241.59
2022-10-30T18:37:43.406Z,98245.75
2022-10-30T18:40:12.955Z,98244.75
2022-10-30T18:42:40.430Z,98242.03
2022-10-30T18:45:19.209Z,98238.50
2022-10-30T18:47:46.906Z,98241.63
2022-10-30T18:50:14.843Z,98243.09
2022-10-30T18:52:42.934Z,98246.19
2022-10-30T18:55:21.194Z,98236.66
2022-10-30T18:57:49.900Z,98240.41
2022-10-30T19:00:19.987Z,98245.78
2022-10-30T19:02:47.630Z,98246.44
2022-10-30T19:05:30.051Z,98243.31
2022-10-30T19:07:58.918Z,98239.59
2022-10-30T19:10:29.784Z,98239.78
2022-10-30T19:13:11.554Z,98243.94
2022-10-30T19:15:42.206Z,98240.41
2022-10-30T19:18:09.809Z,98240.25
2022-10-30T19:20:58.999Z,98239.22
2022-10-30T19:23:26.590Z,98241.28
2022-10-30T19:25:56.298Z,98248.97
2022-10-30T19:28:23.952Z,98246.69
2022-10-30T19:30:52.782Z,98245.63
2022-10-30T19:33:21.999Z,98240.88
2022-10-30T19:35:54.847Z,98244.38
2022-10-30T19:38:22.629Z,98246.69
2022-10-30T19:40:50.751Z,98245.66
2022-10-30T19:43:19.629Z,98250.44
2022-10-30T19:45:49.074Z,98248.38
2022-10-30T19:48:40.414Z,98247.13
2022-10-30T19:51:11.307Z,98253.56
2022-10-30T19:53:39.122Z,98252.50
2022-10-30T19:56:09.394Z,98253.97
2022-10-30T19:58:38.235Z,98256.66
2022-10-30T20:01:05.950Z,98249.81
2022-10-30T20:03:33.469Z,98260.19
2022-10-30T20:06:00.951Z,98255.41
2022-10-30T20:08:29.041Z,98259.56
2022-10-30T20:10:57.881Z,98257.28
2022-10-30T20:13:26.690Z,98265.81
2022-10-30T20:15:57.086Z,98268.31
2022-10-30T20:18:27.277Z,98255.84
2022-10-30T20:20:56.337Z,98263.53
2022-10-30T20:23:24.927Z,98267.88
2022-10-30T20:25:54.177Z,98266.63
2022-10-30T20:28:24.622Z,98269.31
2022-10-30T20:30:52.312Z,98271.19
2022-10-30T20:33:22.690Z,98275.97
2022-10-30T20:35:51.889Z,98277.19
2022-10-30T20:38:21.301Z,98274.72
2022-10-30T20:40:49.745Z,98281.13
2022-10-30T20:43:18.178Z,98277.00
2022-10-30T20:45:45.883Z,98265.16
2022-10-30T20:48:13.717Z,98273.88
2022-10-30T20:50:45.480Z,98275.28
2022-10-30T20:53:16.633Z,98277.34
2022-10-30T20:55:44.152Z,98284.59
2022-10-30T20:58:11.781Z,98277.94
2022-10-30T21:00:39.594Z,98285.63
2022-10-30T21:03:08.217Z,98290.41
2022-10-30T21:05:43.894Z,98292.69
2022-10-30T21:08:13.952Z,98296.41
2022-10-30T21:10:42.146Z,98286.66
2022-10-30T21:13:11.189Z,98285.63
2022-10-30T21:15:40.029Z,98291.19
2022-10-30T21:18:07.600Z,98283.53
2022-10-30T21:20:35.255Z,98288.72
2022-10-30T21:23:02.760Z,98285.81
2022-10-30T21:25:32.190Z,98281.25
2022-10-30T21:28:00.002Z,98283.09
2022-10-30T21:30:27.826Z,98284.38
2022-10-30T21:32:55.365Z,98285.16
2022-10-30T21:35:22.834Z,98280.19
2022-10-30T21:37:50.466Z,98278.09
2022-10-30T21:40:18.083Z,98279.94
2022-10-30T21:42:49.585Z,98273.72
2022-10-30T21:45:17.286Z,98273.53
2022-10-30T21:47:44.743Z,98274.78
2022-10-30T21:50:13.022Z,98278.06
2022-10-30T21:52:40.783Z,98277.84
2022-10-30T21:55:08.792Z,98277.84
2022-10-30T21:57:36.728Z,98277.84
2022-10-30T22:00:07.546Z,98276.81
2022-10-30T22:02:35.167Z,98278.03
2022-10-30T22:05:02.680Z,98276.59
2022-10-30T22:07:30.146Z,98272.03
2022-10-30T22:09:57.603Z,98282.19
2022-10-30T22:12:25.045Z,98269.53
2022-10-30T22:14:52.513Z,98271.59
2022-10-30T22:17:21.308Z,98269.69
2022-10-30T22:19:48.814Z,98269.09
2022-10-30T22:22:16.280Z,98264.53
2022-10-30T22:24:43.742Z,98267.63
2022-10-30T22:27:11.192Z,98266.56
2022-10-30T22:29:38.728Z,98264.28
2022-10-30T22:32:06.473Z,98273.22
2022-10-30T22:34:35.298Z,98272.38
2022-10-30T22:37:04.784Z,98265.91
2022-10-30T22:39:32.203Z,98265.91
2022-10-30T22:41:59.725Z,98266.75
2022-10-30T22:44:28.529Z,98270.25
2022-10-30T22:46:55.979Z,98271.94
2022-10-30T22:49:23.420Z,98269.41
2022-10-30T22:51:52.220Z,98264.63
2022-10-30T22:54:19.675Z,98271.44
2022-10-30T22:56:47.124Z,98281.00
2022-10-30T22:59:15.387Z,98281.59
2022-10-30T23:01:43.659Z,98276.00
2022-10-30T23:04:12.646Z,98270.19
2022-10-30T23:06:40.330Z,98277.44
2022-10-30T23:09:11.079Z,98274.94
2022-10-30T23:11:38.549Z,98275.78
2022-10-30T23:14:06.000Z,98281.13
2022-10-30T23:16:33.617Z,98280.53
2022-10-30T23:19:04.298Z,98287.34
2022-10-30T23:21:32.558Z,98280.50
2022-10-30T23:24:00.661Z,98281.53
2022-10-30T23:26:31.790Z,98291.00
2022-10-30T23:29:00.532Z,98285.22
2022-10-30T23:31:29.566Z,98289.78
2022-10-30T23:33:59.147Z,98291.41
2022-10-30T23:36:26.927Z,98289.59
2022-10-30T23:38:55.217Z,98282.53
2022-10-30T23:41:23.266Z,98283.78
2022-10-30T23:43:55.263Z,98287.50
2022-10-30T23:46:22.880Z,98295.31
2022-10-30T23:48:50.894Z,98294.13
2022-10-30T23:51:18.748Z,98302.66
2022-10-30T23:53:46.280Z,98299.28
2022-10-30T23:56:14.275Z,98306.75
2022-10-30T23:58:43.861Z,98311.91
